Time;durP1;ratioP1;P1;durP2;ratioP2;P2;SDS_P1;SDS_P2;PMS_P1;PMS_P2;Temp;Humidity;BMP_temperature;BMP_pressure;BME280_temperature;BME280_humidity;BME280_pressure;Samples;Min_cycle;Max_cycle;Signal;HPM_P1;HPM_P2
2022/08/16 00:01:21;;;;;;;9.00;4.30;;;;;;;17.23;81.29;100155.19;4954075;28;20109;-41
2022/08/16 00:03:51;;;;;;;7.40;5.93;;;;;;;17.23;81.44;100166.38;4971651;28;20035;-41
2022/08/16 00:06:18;;;;;;;4.60;3.60;;;;;;;17.22;81.75;100159.16;4970724;28;20085;-41
2022/08/16 00:08:45;;;;;;;6.93;3.75;;;;;;;17.20;81.63;100161.56;4971026;28;20070;-42
2022/08/16 00:11:12;;;;;;;10.93;4.63;;;;;;;17.20;81.89;100147.59;4970630;28;20490;-46
2022/08/16 00:13:44;;;;;;;7.20;3.33;;;;;;;17.20;81.57;100150.38;4967777;28;20067;-45
2022/08/16 00:16:24;;;;;;;4.88;3.53;;;;;;;17.17;81.68;100144.78;4969470;28;20516;-41
2022/08/16 00:19:18;;;;;;;8.23;3.42;;;;;;;17.10;81.68;100137.25;4969922;28;20050;-42
2022/08/16 00:21:48;;;;;;;5.32;3.85;;;;;;;17.08;81.50;100136.81;4969237;28;20430;-41
2022/08/16 00:24:20;;;;;;;;;;;;;;;17.01;81.50;100128.47;4968711;28;20513;-43
2022/08/16 00:27:00;;;;;;;3.95;3.45;;;;;;;16.95;81.22;100130.06;4970179;28;19922;-41
2022/08/16 00:29:27;;;;;;;8.75;3.67;;;;;;;16.85;81.38;100128.91;4967130;28;20474;-42
2022/08/16 00:31:56;;;;;;;4.63;3.60;;;;;;;16.80;81.69;100129.31;4958239;28;20143;-50
2022/08/16 00:34:31;;;;;;;5.40;3.85;;;;;;;16.73;81.84;100126.50;4966792;28;20428;-45
2022/08/16 00:37:12;;;;;;;7.03;3.67;;;;;;;16.72;81.71;100135.31;4970056;28;20128;-41
2022/08/16 00:39:44;;;;;;;5.20;3.45;;;;;;;16.68;81.79;100128.94;4969453;28;20043;-43
2022/08/16 00:42:13;;;;;;;7.88;3.60;;;;;;;16.66;81.96;100131.31;4969605;28;20097;-41
2022/08/16 00:45:01;;;;;;;5.30;3.20;;;;;;;16.66;81.92;100136.91;4970612;28;20468;-42
2022/08/16 00:47:38;;;;;;;6.93;3.45;;;;;;;16.64;82.14;100137.31;4968169;28;20043;-41
2022/08/16 00:50:05;;;;;;;7.85;3.72;;;;;;;16.59;82.24;100136.91;4967885;28;20046;-43
2022/08/16 00:52:38;;;;;;;5.95;4.20;;;;;;;16.55;82.31;100147.31;4968474;28;20375;-43
2022/08/16 00:55:16;;;;;;;5.90;2.95;;;;;;;16.51;82.37;100141.69;4968292;28;20043;-42
2022/08/16 00:57:44;;;;;;;5.82;3.83;;;;;;;16.53;82.35;100144.09;4969668;28;20042;-43
2022/08/16 01:00:27;;;;;;;8.05;3.83;;;;;;;16.49;82.12;100137.69;4966764;28;20130;-45
2022/08/16 01:02:57;;;;;;;4.63;3.10;;;;;;;16.44;82.31;100136.88;4967873;28;20145;-46
2022/08/16 01:05:24;;;;;;;5.75;3.60;;;;;;;16.41;82.64;100137.69;4969944;28;20121;-41
2022/08/16 01:07:52;;;;;;;9.77;4.18;;;;;;;16.34;82.77;100140.47;4968043;28;20046;-42
2022/08/16 01:10:24;;;;;;;4.90;3.55;;;;;;;16.35;82.85;100144.88;4967562;28;20053;-43
2022/08/16 01:13:05;;;;;;;4.63;3.40;;;;;;;16.35;82.89;100144.88;4968338;28;20047;-46
2022/08/16 01:15:36;;;;;;;4.95;3.63;;;;;;;16.37;82.66;100147.25;4956127;28;20043;-42
2022/08/16 01:18:16;;;;;;;4.72;3.47;;;;;;;16.35;83.01;100156.06;4960802;28;20046;-41
2022/08/16 01:21:22;;;;;;;5.60;3.53;;;;;;;16.31;83.39;100154.44;4963879;28;20058;-44
2022/08/16 01:24:17;;;;;;;6.78;3.85;;;;;;;16.28;83.45;100160.84;4969130;28;20057;-41
2022/08/16 01:27:25;;;;;;;5.85;3.67;;;;;;;16.27;83.66;100168.41;4943577;28;20035;-48
2022/08/16 01:30:13;;;;;;;5.50;3.67;;;;;;;16.28;83.58;100167.19;4967074;28;20038;-47
2022/08/16 01:32:47;;;;;;;6.05;4.00;;;;;;;16.30;83.42;100170.41;4963407;28;20047;-41
2022/08/16 01:35:46;;;;;;;6.88;3.45;;;;;;;16.30;83.46;100167.63;4968383;28;20047;-43
2022/08/16 01:38:29;;;;;;;5.97;3.88;;;;;;;16.31;83.43;100179.56;4968720;28;20043;-46
2022/08/16 01:41:18;;;;;;;6.70;3.78;;;;;;;16.28;83.28;100174.81;4967662;28;20077;-44
2022/08/16 01:43:48;;;;;;;7.50;3.80;;;;;;;16.25;83.13;100176.41;4963322;28;20077;-47
2022/08/16 01:46:27;;;;;;;5.57;3.95;;;;;;;16.24;83.04;100174.78;4966232;28;20050;-43
2022/08/16 01:49:09;;;;;;;6.78;5.03;;;;;;;16.23;83.11;100184.34;4968494;28;20062;-45
2022/08/16 01:51:37;;;;;;;7.57;3.92;;;;;;;16.22;83.04;100185.56;4967980;28;20126;-48
2022/08/16 01:54:05;;;;;;;7.63;4.43;;;;;;;16.22;82.96;100173.59;4967991;28;20493;-42
2022/08/16 01:56:33;;;;;;;6.32;3.45;;;;;;;16.24;83.17;100177.59;4966193;28;20053;-41
2022/08/16 01:59:03;;;;;;;5.82;3.42;;;;;;;16.29;83.13;100191.16;4967574;28;20452;-42
2022/08/16 02:01:31;;;;;;;6.90;3.58;;;;;;;16.25;82.92;100195.97;4977580;28;20448;-41
2022/08/16 02:04:00;;;;;;;5.60;3.63;;;;;;;16.25;83.02;100190.38;4963436;28;20517;-42
2022/08/16 02:06:39;;;;;;;10.40;3.80;;;;;;;16.27;82.84;100199.16;4968380;28;20374;-44
2022/08/16 02:09:13;;;;;;;5.53;3.28;;;;;;;16.27;82.90;100193.56;4961183;28;20062;-42
2022/08/16 02:11:45;;;;;;;7.35;3.28;;;;;;;16.29;82.83;100188.38;4967008;28;20122;-43
2022/08/16 02:14:21;;;;;;;4.15;3.40;;;;;;;16.30;82.43;100203.13;4966144;28;20493;-41
2022/08/16 02:16:53;;;;;;;6.90;3.33;;;;;;;16.29;82.46;100202.34;4965803;28;20836;-44
2022/08/16 02:19:22;;;;;;;5.10;3.55;;;;;;;16.29;82.26;100210.72;4968595;28;20031;-43
2022/08/16 02:22:13;;;;;;;7.10;3.55;;;;;;;16.29;82.27;100201.53;4965791;28;20496;-42
2022/08/16 02:24:59;;;;;;;5.55;3.67;;;;;;;16.25;82.26;100207.13;4956336;28;20046;-47
2022/08/16 02:27:26;;;;;;;5.40;3.15;;;;;;;16.26;82.27;100210.69;4967107;28;20093;-42
2022/08/16 02:29:56;;;;;;;8.55;3.40;;;;;;;16.29;82.14;100213.50;4968333;28;20055;-41
2022/08/16 02:32:31;;;;;;;7.57;3.22;;;;;;;16.28;82.11;100208.31;4966697;28;20054;-43
2022/08/16 02:35:18;;;;;;;7.22;3.20;;;;;;;16.28;82.08;100208.31;4960791;28;20042;-45
2022/08/16 02:37:49;;;;;;;5.40;2.95;;;;;;;16.25;82.03;100201.53;4972058;28;20118;-41
2022/08/16 02:40:20;;;;;;;12.00;3.65;;;;;;;16.25;81.98;100195.16;4972637;28;20066;-42
2022/08/16 02:42:49;;;;;;;5.68;3.20;;;;;;;16.21;82.14;100199.91;4969829;28;20141;-43
2022/08/16 02:45:18;;;;;;;7.88;2.90;;;;;;;16.17;82.22;100199.94;4970334;28;20098;-40
2022/08/16 02:47:45;;;;;;;8.32;3.25;;;;;;;16.17;82.07;100208.31;4971849;28;20051;-44
2022/08/16 02:50:27;;;;;;;4.30;3.20;;;;;;;16.15;82.10;100202.28;4965962;28;20101;-43
2022/08/16 02:53:14;;;;;;;6.20;3.05;;;;;;;16.18;82.05;100209.88;4970909;28;20508;-43
2022/08/16 02:55:49;;;;;;;4.40;2.90;;;;;;;16.19;82.25;100208.69;4966093;28;20105;-46
2022/08/16 02:58:16;;;;;;;9.73;3.85;;;;;;;16.22;82.05;100212.69;4970455;28;20501;-44
2022/08/16 03:00:43;;;;;;;6.38;3.30;;;;;;;16.19;82.09;100211.50;5064516;22;20113;-43
2022/08/16 03:03:16;;;;;;;6.22;2.65;;;;;;;16.20;81.96;100215.09;5010390;28;20045;-42
2022/08/16 03:05:46;;;;;;;3.55;2.60;;;;;;;16.15;81.76;100216.25;5005251;28;20043;-42
2022/08/16 03:08:19;;;;;;;6.82;2.42;;;;;;;16.12;81.57;100217.06;4995550;28;20237;-46
2022/08/16 03:11:07;;;;;;;7.40;2.70;;;;;;;16.10;81.69;100227.81;4999605;28;20049;-42
2022/08/16 03:13:48;;;;;;;5.65;1.90;;;;;;;16.03;81.27;100222.22;5014554;28;20045;-43
2022/08/16 03:16:19;;;;;;;8.15;2.10;;;;;;;15.96;81.04;100222.22;5010447;28;20424;-42
2022/08/16 03:19:06;;;;;;;3.90;2.03;;;;;;;15.90;81.19;100223.78;5003602;28;20043;-47
2022/08/16 03:21:34;;;;;;;3.80;1.88;;;;;;;15.90;81.15;100226.56;4993478;28;20088;-42
2022/08/16 03:24:05;;;;;;;3.17;2.00;;;;;;;15.93;81.02;100239.75;5018112;28;20045;-46
2022/08/16 03:26:52;;;;;;;8.35;2.15;;;;;;;15.93;80.59;100234.16;5010737;28;20052;-42
2022/08/16 03:29:28;;;;;;;6.45;2.30;;;;;;;15.90;80.55;100239.72;5015031;28;20634;-42
2022/08/16 03:31:57;;;;;;;3.60;2.15;;;;;;;15.90;80.67;100256.47;5011370;28;20045;-43
2022/08/16 03:34:26;;;;;;;3.50;1.73;;;;;;;15.90;80.80;100253.69;5021191;28;20096;-42
2022/08/16 03:36:54;;;;;;;3.38;1.70;;;;;;;15.89;80.80;100250.09;5004011;28;20072;-42
2022/08/16 03:39:21;;;;;;;4.32;1.40;;;;;;;15.88;80.66;100250.50;5017958;28;20049;-42
2022/08/16 03:41:49;;;;;;;3.50;1.45;;;;;;;15.84;80.42;100245.69;5009379;28;20048;-42
2022/08/16 03:44:25;;;;;;;4.85;1.98;;;;;;;15.83;80.41;100251.69;5015695;28;20079;-42
2022/08/16 03:47:11;;;;;;;6.18;1.55;;;;;;;15.83;80.29;100252.47;5011460;28;20030;-43
2022/08/16 03:49:48;;;;;;;2.95;1.40;;;;;;;15.86;80.16;100248.06;5019073;28;20042;-46
2022/08/16 03:52:19;;;;;;;5.50;2.13;;;;;;;15.88;80.10;100256.88;5002423;28;20041;-42
2022/08/16 03:54:50;;;;;;;3.63;2.22;;;;;;;15.89;80.10;100250.09;5002605;28;20068;-45
2022/08/16 03:57:24;;;;;;;4.28;1.50;;;;;;;15.86;80.03;100250.88;4996548;28;20490;-42
2022/08/16 04:00:17;;;;;;;4.10;1.40;;;;;;;15.84;80.08;100264.44;5003266;28;20452;-45
2022/08/16 04:03:06;;;;;;;;;;;;;;;15.79;79.82;100254.44;5018900;28;20049;-47
2022/08/16 04:05:42;;;;;;;4.90;1.50;;;;;;;15.74;80.08;100254.81;5014309;28;20442;-42
2022/08/16 04:08:09;;;;;;;7.60;1.92;;;;;;;15.73;79.86;100260.78;5019985;28;20053;-49
2022/08/16 04:10:51;;;;;;;4.07;1.85;;;;;;;15.73;79.72;100258.00;4990535;28;20050;-47
2022/08/16 04:13:18;;;;;;;5.15;1.60;;;;;;;15.74;79.80;100259.59;5002785;28;20451;-43
2022/08/16 04:16:05;;;;;;;7.22;1.67;;;;;;;15.78;79.66;100261.22;5000856;28;20042;-44
2022/08/16 04:18:35;;;;;;;5.03;1.55;;;;;;;15.78;79.55;100266.00;5010020;28;20127;-47
2022/08/16 04:21:02;;;;;;;7.22;1.70;;;;;;;15.74;79.75;100265.19;4996497;28;20050;-42
2022/08/16 04:23:29;;;;;;;11.38;1.60;;;;;;;15.71;79.85;100266.78;5003271;28;20072;-43
2022/08/16 04:25:56;;;;;;;5.28;1.40;;;;;;;15.71;79.57;100254.81;5012123;28;20104;-42
2022/08/16 04:28:27;;;;;;;7.60;1.83;;;;;;;15.70;79.55;100264.38;4995329;28;20050;-42
2022/08/16 04:31:14;;;;;;;6.90;1.73;;;;;;;15.66;79.51;100264.34;5007762;28;20054;-42
2022/08/16 04:33:41;;;;;;;10.20;1.70;;;;;;;15.67;79.55;100270.75;5015371;28;20060;-42
2022/08/16 04:36:17;;;;;;;4.40;1.50;;;;;;;15.68;79.34;100266.75;5014134;28;20506;-42
2022/08/16 04:38:45;;;;;;;4.47;1.60;;;;;;;15.65;79.56;100265.53;4998139;28;20133;-43
2022/08/16 04:41:16;;;;;;;8.55;1.90;;;;;;;15.62;79.21;100265.53;5004850;28;20046;-45
2022/08/16 04:43:43;;;;;;;8.77;2.15;;;;;;;15.56;79.20;100270.69;5000993;28;20069;-42
2022/08/16 04:46:13;;;;;;;5.43;2.35;;;;;;;15.49;79.10;100265.03;5002572;28;20121;-42
2022/08/16 04:49:00;;;;;;;3.78;1.13;;;;;;;15.46;79.27;100271.41;5002569;28;20205;-42
2022/08/16 04:51:27;;;;;;;5.47;1.77;;;;;;;15.44;79.10;100270.16;4997654;28;20050;-44
2022/08/16 04:54:02;;;;;;;5.93;1.92;;;;;;;15.43;79.15;100266.59;5001868;28;20053;-42
2022/08/16 04:56:29;;;;;;;5.30;1.85;;;;;;;15.43;79.09;100271.38;5015261;28;20049;-42
2022/08/16 04:58:56;;;;;;;6.53;2.38;;;;;;;15.43;79.14;100269.38;5011147;28;20077;-42
2022/08/16 05:01:23;;;;;;;9.25;1.63;;;;;;;15.44;79.05;100273.75;5010327;28;20541;-42
2022/08/16 05:04:10;;;;;;;7.80;2.15;;;;;;;15.45;79.10;100280.13;5018120;28;20033;-42
2022/08/16 05:06:45;;;;;;;10.13;1.63;;;;;;;15.45;79.19;100280.13;5010731;28;20049;-43
2022/08/16 05:09:13;;;;;;;7.50;1.45;;;;;;;15.43;78.97;100280.53;5010481;28;20061;-42
2022/08/16 05:11:42;;;;;;;9.07;2.05;;;;;;;15.42;78.76;100283.69;5002980;28;20510;-43
2022/08/16 05:14:08;;;;;;;8.82;1.80;;;;;;;15.41;78.80;100287.69;5015052;28;20044;-42
2022/08/16 05:16:35;;;;;;;4.20;1.10;;;;;;;15.38;78.63;100285.69;5004677;28;20133;-42
2022/08/16 05:19:03;;;;;;;6.50;1.88;;;;;;;15.41;78.90;100284.91;5004609;28;20069;-42
2022/08/16 05:21:37;;;;;;;7.07;2.63;;;;;;;15.40;78.76;100288.88;5010336;28;20087;-42
2022/08/16 05:24:06;;;;;;;4.72;1.27;;;;;;;15.39;78.75;100287.25;5015562;28;20045;-42
2022/08/16 05:26:36;;;;;;;5.00;1.60;;;;;;;15.38;78.56;100296.84;5006409;28;20042;-43
2022/08/16 05:29:17;;;;;;;4.93;1.73;;;;;;;15.38;78.34;100296.84;5002445;28;20073;-45
2022/08/16 05:31:46;;;;;;;9.30;1.92;;;;;;;15.36;78.50;100318.72;5004430;28;20054;-42
2022/08/16 05:34:20;;;;;;;2.78;1.25;;;;;;;15.35;78.62;100308.78;5003529;28;20065;-43
2022/08/16 05:36:48;;;;;;;6.10;1.70;;;;;;;15.35;78.39;100314.34;5021794;28;20056;-43
2022/08/16 05:39:18;;;;;;;5.88;1.58;;;;;;;15.35;78.10;100308.78;4999478;28;20704;-47
2022/08/16 05:41:46;;;;;;;8.35;2.65;;;;;;;15.34;78.24;100309.94;4996355;28;20058;-43
2022/08/16 05:44:15;;;;;;;5.90;1.58;;;;;;;15.35;78.05;100315.16;5017748;28;20104;-42
2022/08/16 05:46:55;;;;;;;5.47;1.20;;;;;;;15.36;77.96;100329.88;4995386;28;20038;-42
2022/08/16 05:49:27;;;;;;;11.50;4.80;;;;;;;15.35;77.95;100325.50;4997985;28;20090;-42
2022/08/16 05:52:06;;;;;;;9.05;1.60;;;;;;;15.34;77.76;100323.91;4989738;28;20046;-42
2022/08/16 05:54:40;;;;;;;5.90;1.30;;;;;;;15.35;77.73;100331.09;5002278;28;20061;-46
2022/08/16 05:57:14;;;;;;;3.17;1.40;;;;;;;15.35;77.83;100333.88;5007805;28;20112;-45
2022/08/16 05:59:42;;;;;;;5.07;1.40;;;;;;;15.34;77.66;100338.66;5011869;28;20048;-42
2022/08/16 06:02:09;;;;;;;7.03;1.40;;;;;;;15.36;77.80;100338.25;4999591;28;20064;-42
2022/08/16 06:04:36;;;;;;;7.00;1.73;;;;;;;15.34;77.67;100337.84;5016257;28;20522;-42
2022/08/16 06:07:08;;;;;;;3.72;1.58;;;;;;;15.32;77.45;100348.59;5014172;28;20050;-47
2022/08/16 06:09:55;;;;;;;5.22;1.55;;;;;;;15.31;77.34;100342.22;5007512;28;20048;-42
2022/08/16 06:12:21;;;;;;;7.18;1.98;;;;;;;15.32;77.15;100346.59;5017971;28;20050;-43
2022/08/16 06:15:01;;;;;;;4.10;1.08;;;;;;;15.34;77.07;100355.38;5006892;28;20113;-42
2022/08/16 06:17:34;;;;;;;6.75;1.90;;;;;;;15.35;76.90;100350.59;5000637;28;20045;-42
2022/08/16 06:20:19;;;;;;;7.40;1.50;;;;;;;15.36;76.66;100352.19;4994294;28;20050;-42
2022/08/16 06:22:54;;;;;;;3.70;1.70;;;;;;;15.38;76.80;100347.06;5014610;28;20046;-42
2022/08/16 06:25:31;;;;;;;4.20;1.15;;;;;;;15.37;76.79;100345.44;5008599;28;20111;-46
2022/08/16 06:28:08;;;;;;;6.45;1.60;;;;;;;15.36;76.65;100344.63;4996370;28;20131;-43
2022/08/16 06:30:43;;;;;;;6.20;1.85;;;;;;;15.38;76.61;100349.84;5005026;28;20046;-43
2022/08/16 06:33:15;;;;;;;9.15;1.40;;;;;;;15.39;76.73;100355.03;5006595;28;20034;-43
2022/08/16 06:35:52;;;;;;;8.60;1.80;;;;;;;15.35;76.46;100342.25;5003229;28;20069;-46
2022/08/16 06:38:25;;;;;;;2.63;1.50;;;;;;;15.40;76.43;100350.25;4991553;28;20056;-43
2022/08/16 06:41:02;;;;;;;6.50;1.75;;;;;;;15.47;76.14;100351.13;5004105;28;20133;-42
2022/08/16 06:43:29;;;;;;;5.38;1.50;;;;;;;15.54;75.69;100361.56;5000820;28;20085;-43
2022/08/16 06:45:58;;;;;;;7.53;1.08;;;;;;;15.55;75.48;100360.34;4991439;28;20125;-43
2022/08/16 06:48:26;;;;;;;3.53;1.10;;;;;;;15.58;75.19;100365.16;5005658;28;20050;-43
2022/08/16 06:51:01;;;;;;;5.05;1.27;;;;;;;15.60;75.07;100373.94;4992526;28;20381;-43
2022/08/16 06:53:32;;;;;;;4.55;1.02;;;;;;;15.55;74.89;100380.69;4992105;28;20041;-43
2022/08/16 06:56:04;;;;;;;2.80;1.17;;;;;;;15.56;74.95;100373.13;4992047;28;20503;-42
2022/08/16 06:58:39;;;;;;;9.65;1.33;;;;;;;15.57;74.95;100377.50;4992310;28;20038;-43
2022/08/16 07:01:06;;;;;;;5.95;1.23;;;;;;;15.59;75.06;100380.72;4997684;28;20064;-43
2022/08/16 07:03:40;;;;;;;3.33;1.27;;;;;;;15.65;74.78;100379.16;4993871;28;20411;-43
2022/08/16 07:06:23;;;;;;;3.60;1.10;;;;;;;15.70;74.96;100381.59;5001606;28;20064;-43
2022/08/16 07:08:53;;;;;;;1.95;1.42;;;;;;;15.78;74.75;100374.84;5008117;28;20503;-43
2022/08/16 07:11:19;;;;;;;5.78;1.33;;;;;;;15.83;74.60;100385.66;5009988;28;20084;-43
2022/08/16 07:14:06;;;;;;;4.63;1.75;;;;;;;15.86;74.34;100382.06;5003270;28;20045;-42
2022/08/16 07:16:56;;;;;;;2.20;1.27;;;;;;;15.96;74.37;100378.56;4994077;28;20042;-47
2022/08/16 07:19:25;;;;;;;8.50;1.40;;;;;;;16.03;73.74;100380.59;5006727;28;20045;-48
2022/08/16 07:22:12;;;;;;;8.55;1.88;;;;;;;16.08;73.57;100389.41;5010985;28;20042;-44
2022/08/16 07:24:59;;;;;;;3.20;1.55;;;;;;;16.16;73.66;100388.25;5002081;28;20049;-44
2022/08/16 07:27:26;;;;;;;1.92;0.90;;;;;;;16.22;72.90;100385.88;4991569;28;20046;-47
2022/08/16 07:29:53;;;;;;;6.10;2.10;;;;;;;16.25;72.51;100385.91;4991372;28;20129;-44
2022/08/16 07:32:21;;;;;;;5.63;1.75;;;;;;;16.28;72.40;100392.69;4991152;28;20054;-43
2022/08/16 07:34:55;;;;;;;3.00;1.58;;;;;;;16.29;72.11;100386.72;4996525;28;20078;-43
2022/08/16 07:37:22;;;;;;;3.47;1.33;;;;;;;16.32;71.65;100391.50;4991359;28;20057;-44
2022/08/16 07:39:50;;;;;;;3.05;1.00;;;;;;;16.35;71.48;100382.34;4996532;28;20053;-43
2022/08/16 07:42:19;;;;;;;3.42;1.13;;;;;;;16.45;71.12;100394.75;5010469;28;20054;-49
2022/08/16 07:45:02;;;;;;;3.05;0.80;;;;;;;16.47;70.77;100402.75;4991118;28;20042;-43
2022/08/16 07:47:43;;;;;;;4.90;1.10;;;;;;;16.38;70.57;100391.94;5004339;28;20104;-44
2022/08/16 07:50:13;;;;;;;5.78;1.05;;;;;;;16.42;70.42;100404.72;4990892;28;20552;-48
2022/08/16 07:52:59;;;;;;;4.45;1.38;;;;;;;16.26;70.04;100398.66;5003780;28;20046;-43
2022/08/16 07:55:27;;;;;;;4.35;1.20;;;;;;;16.28;69.95;100404.66;4998928;28;20506;-43
2022/08/16 07:58:12;;;;;;;4.53;1.55;;;;;;;16.23;69.64;100407.03;4999774;28;20091;-43
2022/08/16 08:01:00;;;;;;;5.07;1.25;;;;;;;16.21;69.71;100401.84;5003773;28;20038;-44
2022/08/16 08:03:27;;;;;;;2.00;1.00;;;;;;;16.27;69.52;100414.25;4993526;28;20057;-42
2022/08/16 08:06:08;;;;;;;11.13;2.10;;;;;;;16.24;69.39;100422.59;4996782;28;20487;-43
2022/08/16 08:08:37;;;;;;;4.93;1.25;;;;;;;16.23;69.06;100413.41;4982688;28;20065;-43
2022/08/16 08:11:18;;;;;;;5.90;1.60;;;;;;;16.30;69.26;100421.03;5007495;28;20038;-44
2022/08/16 08:13:47;;;;;;;3.97;1.05;;;;;;;16.41;69.19;100428.25;5008592;28;20407;-43
2022/08/16 08:16:17;;;;;;;2.20;0.93;;;;;;;16.47;68.85;100425.88;5000303;28;20092;-47
2022/08/16 08:18:46;;;;;;;4.78;1.33;;;;;;;16.51;68.61;100420.31;5001930;28;20516;-43
2022/08/16 08:21:18;;;;;;;7.63;1.00;;;;;;;16.55;68.47;100426.78;5003243;28;20046;-43
2022/08/16 08:23:56;;;;;;;7.20;1.17;;;;;;;16.57;68.21;100418.78;5003911;28;20145;-43
2022/08/16 08:26:24;;;;;;;3.47;0.90;;;;;;;16.67;68.20;100418.03;5003055;28;20129;-44
2022/08/16 08:28:51;;;;;;;4.00;1.17;;;;;;;16.69;67.89;100424.00;4994545;28;20131;-45
2022/08/16 08:31:18;;;;;;;5.80;1.38;;;;;;;16.71;67.87;100422.44;5001757;28;20046;-45
2022/08/16 08:33:45;;;;;;;5.43;1.40;;;;;;;16.93;67.73;100431.69;5001945;28;20115;-43
2022/08/16 08:36:24;;;;;;;3.00;1.00;;;;;;;17.06;67.36;100430.13;5001777;28;20054;-44
2022/08/16 08:38:59;;;;;;;;;;;;;;;17.12;67.39;100436.13;5001924;28;20050;-45
2022/08/16 08:41:28;;;;;;;6.05;1.33;;;;;;;17.25;67.50;100438.16;4994320;28;20021;-41
2022/08/16 08:43:57;;;;;;;3.90;1.15;;;;;;;17.53;66.93;100452.19;5007107;28;20050;-44
2022/08/16 08:46:24;;;;;;;5.30;1.40;;;;;;;17.83;66.09;100453.78;5002646;28;20120;-41
2022/08/16 08:48:53;;;;;;;4.68;1.05;;;;;;;17.94;65.38;100455.38;4998653;28;20062;-41
2022/08/16 08:51:28;;;;;;;6.97;1.60;;;;;;;17.98;65.01;100446.97;4999346;28;20060;-45
2022/08/16 08:54:05;;;;;;;2.67;1.00;;;;;;;17.96;64.49;100454.97;5003643;28;20112;-42
2022/08/16 08:56:36;;;;;;;;;;;;;;;17.98;64.98;100452.56;4996758;28;20053;-50
2022/08/16 08:59:12;;;;;;;5.47;1.88;;;;;;;18.45;64.34;100454.06;4994541;28;19968;-47
2022/08/16 09:01:48;;;;;;;4.20;1.30;;;;;;;18.90;63.23;100452.31;4990429;28;20419;-47
2022/08/16 09:04:25;;;;;;;4.95;1.63;;;;;;;19.08;62.54;100458.63;4967844;28;20057;-44
2022/08/16 09:06:53;;;;;;;3.35;1.10;;;;;;;19.01;61.91;100455.88;4991932;28;20112;-45
2022/08/16 09:09:22;;;;;;;6.25;1.60;;;;;;;18.74;60.84;100459.16;4989887;28;20082;-41
2022/08/16 09:11:49;;;;;;;8.60;1.10;;;;;;;18.47;60.74;100457.25;5001742;28;20480;-42
2022/08/16 09:14:32;;;;;;;5.68;1.67;;;;;;;18.24;61.47;100469.72;5003346;28;20074;-41
2022/08/16 09:17:00;;;;;;;3.53;0.88;;;;;;;18.24;61.95;100466.91;4989749;28;20081;-47
2022/08/16 09:19:43;;;;;;;2.33;1.73;;;;;;;18.29;61.42;100473.34;4992654;28;20511;-42
2022/08/16 09:22:10;;;;;;;4.60;1.25;;;;;;;18.46;61.05;100466.88;5008870;28;20076;-47
2022/08/16 09:24:48;;;;;;;8.05;1.30;;;;;;;18.67;61.07;100467.63;4995450;28;20056;-50
2022/08/16 09:27:20;;;;;;;3.33;1.08;;;;;;;18.78;60.96;100471.19;4996836;28;20497;-42
2022/08/16 09:29:51;;;;;;;2.58;1.17;;;;;;;18.82;61.24;100468.38;4991813;28;20046;-45
2022/08/16 09:32:28;;;;;;;4.00;1.40;;;;;;;18.81;60.90;100478.78;4991077;28;20418;-42
2022/08/16 09:34:58;;;;;;;3.75;1.55;;;;;;;18.57;60.87;100479.69;5008495;28;20054;-42
2022/08/16 09:37:27;;;;;;;3.65;0.95;;;;;;;18.55;60.93;100476.50;4997252;28;20054;-42
2022/08/16 09:39:59;;;;;;;7.90;1.10;;;;;;;18.94;60.32;100478.31;4989575;28;20100;-41
2022/08/16 09:42:28;;;;;;;1.92;0.80;;;;;;;19.35;59.83;100490.53;5007962;28;20050;-41
2022/08/16 09:44:54;;;;;;;5.60;1.00;;;;;;;19.44;58.59;100483.28;4991684;28;20077;-44
2022/08/16 09:47:42;;;;;;;3.42;1.42;;;;;;;19.37;59.08;100482.50;4989107;28;20050;-41
2022/08/16 09:50:28;;;;;;;1.95;1.05;;;;;;;19.29;58.53;100478.13;4981166;28;20076;-42
2022/08/16 09:53:09;;;;;;;7.55;1.65;;;;;;;19.24;58.44;100473.75;4994436;28;20050;-42
2022/08/16 09:55:45;;;;;;;4.30;1.80;;;;;;;19.56;58.37;100484.00;4989309;28;20448;-41
2022/08/16 09:58:18;;;;;;;6.28;1.60;;;;;;;19.96;58.00;100489.69;4989277;28;20081;-43
2022/08/16 10:01:05;;;;;;;3.20;1.48;;;;;;;20.37;56.76;100484.09;4988647;28;20054;-42
2022/08/16 10:03:34;;;;;;;4.80;1.02;;;;;;;20.24;56.41;100491.47;4988809;28;20492;-42
2022/08/16 10:06:01;;;;;;;3.00;1.00;;;;;;;20.00;56.70;100484.03;4988932;28;20046;-45
2022/08/16 10:08:28;;;;;;;3.03;1.00;;;;;;;19.79;56.89;100487.84;5003053;28;20049;-44
2022/08/16 10:13:49;;;;;;;2.55;1.20;;;;;;;20.65;56.46;100483.78;5006676;28;20426;-44
2022/08/16 10:16:16;;;;;;;2.33;0.95;;;;;;;21.55;54.26;100492.66;4989332;28;20066;-45
2022/08/16 10:18:47;;;;;;;5.93;0.95;;;;;;;21.42;53.56;100498.06;5001328;28;20045;-45
2022/08/16 10:21:32;;;;;;;3.92;1.25;;;;;;;21.02;53.63;100491.34;5001039;28;20035;-45
2022/08/16 10:24:01;;;;;;;2.85;0.90;;;;;;;20.73;53.86;100490.09;4989046;28;20101;-41
2022/08/16 10:26:29;;;;;;;3.53;1.05;;;;;;;20.41;54.24;100492.50;4988608;28;20050;-46
2022/08/16 10:29:16;;;;;;;4.28;1.08;;;;;;;20.01;54.78;100494.84;4987572;28;20495;-48
2022/08/16 10:31:46;;;;;;;2.83;0.90;;;;;;;19.71;55.19;100502.34;4988483;28;20056;-45
2022/08/16 10:34:20;;;;;;;6.72;2.10;;;;;;;19.50;55.41;100492.06;4984448;28;20057;-53
2022/08/16 10:37:01;;;;;;;5.38;1.08;;;;;;;19.38;55.20;100495.34;4988634;28;20412;-54
2022/08/16 10:39:29;;;;;;;4.18;1.20;;;;;;;19.30;55.96;100505.00;4988614;28;20061;-48
2022/08/16 10:42:08;;;;;;;2.95;1.30;;;;;;;19.33;56.30;100504.16;4991511;28;20057;-47
2022/08/16 10:44:35;;;;;;;4.68;1.15;;;;;;;19.27;56.46;100497.41;4988785;28;20090;-53
2022/08/16 10:47:03;;;;;;;3.17;1.30;;;;;;;19.17;56.62;100506.66;4983603;28;20042;-50
2022/08/16 10:49:31;;;;;;;5.57;1.00;;;;;;;19.17;56.49;100493.44;4988308;28;20157;-48
2022/08/16 10:51:57;;;;;;;3.83;1.13;;;;;;;19.29;56.74;100503.41;4989098;28;20054;-52
2022/08/16 10:54:29;;;;;;;6.13;0.90;;;;;;;19.36;56.75;100500.53;4991070;28;20042;-48
2022/08/16 10:57:02;;;;;;;4.95;1.27;;;;;;;19.37;56.97;100504.97;4992373;28;20077;-50
2022/08/16 10:59:31;;;;;;;2.80;0.88;;;;;;;19.41;56.58;100514.19;4992399;28;20511;-49
2022/08/16 11:02:19;;;;;;;3.85;1.02;;;;;;;19.35;56.75;100510.19;4991754;28;20461;-49
2022/08/16 11:05:11;;;;;;;3.30;1.27;;;;;;;19.23;56.81;100516.25;5005550;28;20389;-48
2022/08/16 11:07:42;;;;;;;4.18;0.80;;;;;;;19.24;56.43;100517.88;4991872;28;20415;-51
2022/08/16 11:10:25;;;;;;;3.13;1.13;;;;;;;19.30;56.52;100514.22;4991987;28;20039;-49
2022/08/16 11:13:18;;;;;;;7.73;1.53;;;;;;;19.29;56.49;100514.63;4998951;28;20057;-47
2022/08/16 11:16:06;;;;;;;4.10;1.20;;;;;;;19.37;56.58;100521.81;4993568;28;20050;-47
2022/08/16 11:18:55;;;;;;;4.82;1.20;;;;;;;19.35;56.21;100508.16;4991357;28;20396;-49
2022/08/16 11:21:40;;;;;;;4.93;1.02;;;;;;;19.27;56.11;100515.03;4991470;28;20047;-54
2022/08/16 11:24:28;;;;;;;6.30;1.75;;;;;;;19.23;56.63;100521.88;4991182;28;20043;-50
2022/08/16 11:27:20;;;;;;;4.03;1.23;;;;;;;19.11;56.46;100517.53;4991573;28;20053;-47
2022/08/16 11:30:01;;;;;;;4.32;1.23;;;;;;;19.16;56.47;100527.53;4991734;28;20051;-50
2022/08/16 11:32:35;;;;;;;3.28;1.35;;;;;;;19.12;56.06;100527.53;4992310;28;20353;-48
2022/08/16 11:35:08;;;;;;;4.28;1.50;;;;;;;19.13;56.49;100528.34;4996856;28;20121;-50
2022/08/16 11:37:47;;;;;;;4.93;1.33;;;;;;;19.13;56.29;100534.75;4997141;28;20077;-48
2022/08/16 11:40:38;;;;;;;4.28;1.40;;;;;;;19.04;56.72;100530.78;4999319;28;20042;-48
2022/08/16 11:43:10;;;;;;;7.18;1.77;;;;;;;19.00;57.03;100532.81;5007835;28;20049;-51
2022/08/16 11:45:37;;;;;;;2.22;1.10;;;;;;;18.98;56.84;100535.25;4990902;28;20562;-47
2022/08/16 11:48:04;;;;;;;4.53;1.65;;;;;;;18.94;57.17;100537.25;5004649;28;20044;-48
2022/08/16 11:50:32;;;;;;;5.75;1.77;;;;;;;18.89;56.97;100541.28;4991407;28;20050;-48
2022/08/16 11:53:05;;;;;;;3.35;1.17;;;;;;;18.83;57.24;100531.66;4991137;28;20046;-53
2022/08/16 11:55:35;;;;;;;2.72;1.23;;;;;;;18.76;57.62;100538.13;4991185;28;20062;-47
2022/08/16 11:58:05;;;;;;;5.20;1.73;;;;;;;18.73;57.96;100533.31;4991093;28;20035;-49
2022/08/16 12:00:33;;;;;;;3.05;1.42;;;;;;;18.74;57.82;100539.72;4996157;28;20132;-55
2022/08/16 12:03:19;;;;;;;4.10;1.20;;;;;;;18.77;57.68;100536.91;4996256;28;20042;-48